sensor_id;sensor_type;location;lat;lon;timestamp;P1;durP1;ratioP1;P2;durP2;ratioP2
63536;SDS011;49686;51.880;5.632;2022-12-07T00:01:45;9.48;;;6.45;;
63536;SDS011;49686;51.880;5.632;2022-12-07T00:04:14;9.52;;;7.22;;
63536;SDS011;49686;51.880;5.632;2022-12-07T00:06:42;12.23;;;8.35;;
63536;SDS011;49686;51.880;5.632;2022-12-07T00:09:11;11.75;;;7.30;;
63536;SDS011;49686;51.880;5.632;2022-12-07T00:11:40;11.48;;;7.38;;
63536;SDS011;49686;51.880;5.632;2022-12-07T00:14:09;11.57;;;7.47;;
63536;SDS011;49686;51.880;5.632;2022-12-07T00:16:37;10.57;;;6.22;;
63536;SDS011;49686;51.880;5.632;2022-12-07T00:19:04;10.95;;;7.15;;
63536;SDS011;49686;51.880;5.632;2022-12-07T00:21:32;9.32;;;6.00;;
63536;SDS011;49686;51.880;5.632;2022-12-07T00:24:00;7.72;;;4.78;;
63536;SDS011;49686;51.880;5.632;2022-12-07T00:26:28;10.90;;;8.05;;
63536;SDS011;49686;51.880;5.632;2022-12-07T00:28:58;10.85;;;5.75;;
63536;SDS011;49686;51.880;5.632;2022-12-07T00:31:27;11.50;;;6.97;;
63536;SDS011;49686;51.880;5.632;2022-12-07T00:33:56;11.52;;;6.60;;
63536;SDS011;49686;51.880;5.632;2022-12-07T00:36:23;12.57;;;7.05;;
63536;SDS011;49686;51.880;5.632;2022-12-07T00:41:19;6.50;;;4.18;;
63536;SDS011;49686;51.880;5.632;2022-12-07T00:43:48;10.17;;;6.27;;
63536;SDS011;49686;51.880;5.632;2022-12-07T00:46:17;9.23;;;6.00;;
63536;SDS011;49686;51.880;5.632;2022-12-07T00:48:45;15.70;;;6.32;;
63536;SDS011;49686;51.880;5.632;2022-12-07T00:51:13;9.27;;;5.43;;
63536;SDS011;49686;51.880;5.632;2022-12-07T00:53:40;9.40;;;5.83;;
63536;SDS011;49686;51.880;5.632;2022-12-07T00:56:09;10.50;;;5.93;;
63536;SDS011;49686;51.880;5.632;2022-12-07T00:58:38;11.15;;;5.05;;
63536;SDS011;49686;51.880;5.632;2022-12-07T01:01:05;8.50;;;5.32;;
63536;SDS011;49686;51.880;5.632;2022-12-07T01:03:34;11.40;;;6.53;;
63536;SDS011;49686;51.880;5.632;2022-12-07T01:08:29;10.30;;;6.03;;
63536;SDS011;49686;51.880;5.632;2022-12-07T01:10:57;13.60;;;6.85;;
63536;SDS011;49686;51.880;5.632;2022-12-07T01:13:25;12.73;;;7.07;;
63536;SDS011;49686;51.880;5.632;2022-12-07T01:15:55;8.48;;;5.88;;
63536;SDS011;49686;51.880;5.632;2022-12-07T01:18:23;13.23;;;6.88;;
63536;SDS011;49686;51.880;5.632;2022-12-07T01:20:58;10.60;;;6.45;;
63536;SDS011;49686;51.880;5.632;2022-12-07T01:23:26;11.82;;;7.45;;
63536;SDS011;49686;51.880;5.632;2022-12-07T01:25:56;11.57;;;7.18;;
63536;SDS011;49686;51.880;5.632;2022-12-07T01:28:23;14.13;;;7.97;;
63536;SDS011;49686;51.880;5.632;2022-12-07T01:30:57;13.60;;;8.35;;
63536;SDS011;49686;51.880;5.632;2022-12-07T01:33:26;10.68;;;7.40;;
63536;SDS011;49686;51.880;5.632;2022-12-07T01:38:22;9.85;;;5.63;;
63536;SDS011;49686;51.880;5.632;2022-12-07T01:40:53;7.38;;;5.63;;
63536;SDS011;49686;51.880;5.632;2022-12-07T01:43:20;11.20;;;7.15;;
63536;SDS011;49686;51.880;5.632;2022-12-07T01:48:16;10.30;;;6.35;;
63536;SDS011;49686;51.880;5.632;2022-12-07T01:50:45;13.50;;;7.30;;
63536;SDS011;49686;51.880;5.632;2022-12-07T01:53:14;11.85;;;7.75;;
63536;SDS011;49686;51.880;5.632;2022-12-07T01:55:44;9.33;;;6.27;;
63536;SDS011;49686;51.880;5.632;2022-12-07T01:58:14;10.27;;;7.63;;
63536;SDS011;49686;51.880;5.632;2022-12-07T02:00:42;9.93;;;6.60;;
63536;SDS011;49686;51.880;5.632;2022-12-07T02:03:09;12.10;;;7.97;;
63536;SDS011;49686;51.880;5.632;2022-12-07T02:05:40;16.02;;;8.13;;
63536;SDS011;49686;51.880;5.632;2022-12-07T02:08:09;12.20;;;7.68;;
63536;SDS011;49686;51.880;5.632;2022-12-07T02:10:38;15.30;;;7.53;;
63536;SDS011;49686;51.880;5.632;2022-12-07T02:13:08;15.32;;;7.35;;
63536;SDS011;49686;51.880;5.632;2022-12-07T02:15:41;11.60;;;7.22;;
63536;SDS011;49686;51.880;5.632;2022-12-07T02:18:31;12.25;;;8.18;;
63536;SDS011;49686;51.880;5.632;2022-12-07T02:21:06;11.40;;;6.53;;
63536;SDS011;49686;51.880;5.632;2022-12-07T02:26:41;11.35;;;6.07;;
63536;SDS011;49686;51.880;5.632;2022-12-07T02:29:27;11.52;;;6.47;;
63536;SDS011;49686;51.880;5.632;2022-12-07T02:32:01;12.15;;;6.53;;
63536;SDS011;49686;51.880;5.632;2022-12-07T02:34:36;9.80;;;6.45;;
63536;SDS011;49686;51.880;5.632;2022-12-07T02:37:10;11.77;;;5.28;;
63536;SDS011;49686;51.880;5.632;2022-12-07T02:39:46;7.30;;;5.60;;
63536;SDS011;49686;51.880;5.632;2022-12-07T02:42:17;10.85;;;5.90;;
63536;SDS011;49686;51.880;5.632;2022-12-07T02:44:50;8.13;;;4.75;;
63536;SDS011;49686;51.880;5.632;2022-12-07T02:47:18;10.23;;;5.15;;
63536;SDS011;49686;51.880;5.632;2022-12-07T02:49:47;10.93;;;6.35;;
63536;SDS011;49686;51.880;5.632;2022-12-07T02:52:16;10.75;;;5.25;;
63536;SDS011;49686;51.880;5.632;2022-12-07T02:54:43;8.82;;;4.93;;
63536;SDS011;49686;51.880;5.632;2022-12-07T02:57:14;11.70;;;4.95;;
63536;SDS011;49686;51.880;5.632;2022-12-07T02:59:59;8.30;;;5.45;;
63536;SDS011;49686;51.880;5.632;2022-12-07T03:02:33;9.82;;;4.97;;
63536;SDS011;49686;51.880;5.632;2022-12-07T03:05:25;10.30;;;5.47;;
63536;SDS011;49686;51.880;5.632;2022-12-07T03:08:12;10.77;;;4.95;;
63536;SDS011;49686;51.880;5.632;2022-12-07T03:10:47;10.07;;;5.43;;
63536;SDS011;49686;51.880;5.632;2022-12-07T03:13:22;12.95;;;5.05;;
63536;SDS011;49686;51.880;5.632;2022-12-07T03:15:54;11.30;;;5.55;;
63536;SDS011;49686;51.880;5.632;2022-12-07T03:18:25;11.57;;;5.55;;
63536;SDS011;49686;51.880;5.632;2022-12-07T03:20:57;11.75;;;5.40;;
63536;SDS011;49686;51.880;5.632;2022-12-07T03:23:28;7.95;;;5.00;;
63536;SDS011;49686;51.880;5.632;2022-12-07T03:25:58;10.95;;;4.97;;
63536;SDS011;49686;51.880;5.632;2022-12-07T03:28:28;9.93;;;4.60;;
63536;SDS011;49686;51.880;5.632;2022-12-07T03:30:59;7.93;;;3.85;;
63536;SDS011;49686;51.880;5.632;2022-12-07T03:33:31;13.63;;;4.93;;
63536;SDS011;49686;51.880;5.632;2022-12-07T03:36:04;13.27;;;5.22;;
63536;SDS011;49686;51.880;5.632;2022-12-07T03:38:34;9.23;;;4.57;;
63536;SDS011;49686;51.880;5.632;2022-12-07T03:41:04;8.05;;;4.68;;
63536;SDS011;49686;51.880;5.632;2022-12-07T03:43:34;10.30;;;4.70;;
63536;SDS011;49686;51.880;5.632;2022-12-07T03:46:06;7.15;;;3.38;;
63536;SDS011;49686;51.880;5.632;2022-12-07T03:48:44;12.90;;;4.82;;
63536;SDS011;49686;51.880;5.632;2022-12-07T03:51:18;8.98;;;4.90;;
63536;SDS011;49686;51.880;5.632;2022-12-07T03:53:49;8.90;;;4.50;;
63536;SDS011;49686;51.880;5.632;2022-12-07T03:56:20;9.48;;;4.15;;
63536;SDS011;49686;51.880;5.632;2022-12-07T03:58:48;12.38;;;4.97;;
63536;SDS011;49686;51.880;5.632;2022-12-07T04:01:18;10.07;;;4.80;;
63536;SDS011;49686;51.880;5.632;2022-12-07T04:03:45;7.03;;;4.32;;
63536;SDS011;49686;51.880;5.632;2022-12-07T04:06:12;6.07;;;4.07;;
63536;SDS011;49686;51.880;5.632;2022-12-07T04:08:39;13.70;;;4.60;;
63536;SDS011;49686;51.880;5.632;2022-12-07T04:11:05;7.22;;;3.38;;
63536;SDS011;49686;51.880;5.632;2022-12-07T04:13:32;6.47;;;3.60;;
63536;SDS011;49686;51.880;5.632;2022-12-07T04:15:59;6.93;;;3.75;;
63536;SDS011;49686;51.880;5.632;2022-12-07T04:18:27;5.80;;;3.53;;
63536;SDS011;49686;51.880;5.632;2022-12-07T04:20:54;8.53;;;3.57;;
63536;SDS011;49686;51.880;5.632;2022-12-07T04:23:20;10.65;;;3.47;;
63536;SDS011;49686;51.880;5.632;2022-12-07T04:25:47;5.97;;;3.17;;
63536;SDS011;49686;51.880;5.632;2022-12-07T04:28:14;6.93;;;2.70;;
63536;SDS011;49686;51.880;5.632;2022-12-07T04:30:41;7.40;;;2.95;;
63536;SDS011;49686;51.880;5.632;2022-12-07T04:33:08;12.35;;;3.35;;
63536;SDS011;49686;51.880;5.632;2022-12-07T04:35:36;10.07;;;3.67;;
63536;SDS011;49686;51.880;5.632;2022-12-07T04:38:02;5.63;;;2.88;;
63536;SDS011;49686;51.880;5.632;2022-12-07T04:40:29;8.25;;;3.40;;
63536;SDS011;49686;51.880;5.632;2022-12-07T04:42:56;7.65;;;3.70;;
63536;SDS011;49686;51.880;5.632;2022-12-07T04:45:22;9.13;;;4.35;;
63536;SDS011;49686;51.880;5.632;2022-12-07T04:47:49;11.02;;;3.50;;
63536;SDS011;49686;51.880;5.632;2022-12-07T04:50:16;8.73;;;4.15;;
63536;SDS011;49686;51.880;5.632;2022-12-07T04:52:44;8.52;;;3.95;;
63536;SDS011;49686;51.880;5.632;2022-12-07T04:55:11;8.30;;;4.70;;
63536;SDS011;49686;51.880;5.632;2022-12-07T04:57:38;8.65;;;4.43;;
63536;SDS011;49686;51.880;5.632;2022-12-07T05:00:05;10.57;;;5.35;;
63536;SDS011;49686;51.880;5.632;2022-12-07T05:02:33;16.30;;;5.03;;
63536;SDS011;49686;51.880;5.632;2022-12-07T05:04:59;12.48;;;4.95;;
63536;SDS011;49686;51.880;5.632;2022-12-07T05:07:26;8.95;;;4.43;;
63536;SDS011;49686;51.880;5.632;2022-12-07T05:09:54;12.20;;;6.07;;
63536;SDS011;49686;51.880;5.632;2022-12-07T05:12:21;8.97;;;5.83;;
63536;SDS011;49686;51.880;5.632;2022-12-07T05:14:48;11.63;;;5.45;;
63536;SDS011;49686;51.880;5.632;2022-12-07T05:17:14;9.15;;;4.90;;
63536;SDS011;49686;51.880;5.632;2022-12-07T05:19:41;6.88;;;4.25;;
63536;SDS011;49686;51.880;5.632;2022-12-07T05:22:08;6.72;;;3.75;;
63536;SDS011;49686;51.880;5.632;2022-12-07T05:24:34;3.70;;;2.47;;
63536;SDS011;49686;51.880;5.632;2022-12-07T05:27:03;10.10;;;4.03;;
63536;SDS011;49686;51.880;5.632;2022-12-07T05:29:30;9.83;;;4.20;;
63536;SDS011;49686;51.880;5.632;2022-12-07T05:31:56;6.45;;;3.35;;
63536;SDS011;49686;51.880;5.632;2022-12-07T05:34:23;7.60;;;3.17;;
63536;SDS011;49686;51.880;5.632;2022-12-07T05:36:50;7.00;;;2.67;;
63536;SDS011;49686;51.880;5.632;2022-12-07T05:39:17;5.03;;;2.90;;
63536;SDS011;49686;51.880;5.632;2022-12-07T05:41:43;8.27;;;3.40;;
63536;SDS011;49686;51.880;5.632;2022-12-07T05:44:12;10.23;;;4.03;;
63536;SDS011;49686;51.880;5.632;2022-12-07T05:46:38;10.35;;;4.07;;
63536;SDS011;49686;51.880;5.632;2022-12-07T05:49:05;5.80;;;3.40;;
63536;SDS011;49686;51.880;5.632;2022-12-07T05:51:32;3.60;;;2.08;;
63536;SDS011;49686;51.880;5.632;2022-12-07T05:53:59;7.07;;;3.30;;
63536;SDS011;49686;51.880;5.632;2022-12-07T05:56:25;6.28;;;3.10;;
63536;SDS011;49686;51.880;5.632;2022-12-07T05:58:52;6.80;;;2.85;;
63536;SDS011;49686;51.880;5.632;2022-12-07T06:01:21;4.05;;;1.50;;
63536;SDS011;49686;51.880;5.632;2022-12-07T06:03:47;5.90;;;2.00;;
63536;SDS011;49686;51.880;5.632;2022-12-07T06:06:14;4.85;;;2.70;;
63536;SDS011;49686;51.880;5.632;2022-12-07T06:08:41;4.07;;;1.65;;
63536;SDS011;49686;51.880;5.632;2022-12-07T06:11:07;6.18;;;2.63;;
63536;SDS011;49686;51.880;5.632;2022-12-07T06:13:34;5.90;;;1.95;;
63536;SDS011;49686;51.880;5.632;2022-12-07T06:16:01;5.60;;;2.20;;
63536;SDS011;49686;51.880;5.632;2022-12-07T06:18:29;5.93;;;2.13;;
63536;SDS011;49686;51.880;5.632;2022-12-07T06:20:56;5.70;;;2.00;;
63536;SDS011;49686;51.880;5.632;2022-12-07T06:23:22;8.95;;;2.58;;
63536;SDS011;49686;51.880;5.632;2022-12-07T06:25:49;5.15;;;1.88;;
63536;SDS011;49686;51.880;5.632;2022-12-07T06:28:16;6.03;;;2.08;;
63536;SDS011;49686;51.880;5.632;2022-12-07T06:30:43;7.38;;;2.90;;
63536;SDS011;49686;51.880;5.632;2022-12-07T06:33:09;5.35;;;1.60;;
63536;SDS011;49686;51.880;5.632;2022-12-07T06:35:37;4.97;;;2.05;;
63536;SDS011;49686;51.880;5.632;2022-12-07T06:38:04;9.57;;;2.17;;
63536;SDS011;49686;51.880;5.632;2022-12-07T06:40:31;5.22;;;2.88;;
63536;SDS011;49686;51.880;5.632;2022-12-07T06:42:58;5.55;;;1.95;;
63536;SDS011;49686;51.880;5.632;2022-12-07T06:45:25;6.50;;;2.00;;
63536;SDS011;49686;51.880;5.632;2022-12-07T06:47:51;7.00;;;2.60;;
63536;SDS011;49686;51.880;5.632;2022-12-07T06:50:18;6.85;;;2.08;;
63536;SDS011;49686;51.880;5.632;2022-12-07T06:52:46;8.15;;;2.00;;
63536;SDS011;49686;51.880;5.632;2022-12-07T06:55:13;5.67;;;2.03;;
63536;SDS011;49686;51.880;5.632;2022-12-07T06:57:40;4.85;;;2.00;;
63536;SDS011;49686;51.880;5.632;2022-12-07T07:00:07;4.20;;;1.92;;
63536;SDS011;49686;51.880;5.632;2022-12-07T07:02:35;2.87;;;1.50;;
63536;SDS011;49686;51.880;5.632;2022-12-07T07:05:02;6.53;;;2.10;;
63536;SDS011;49686;51.880;5.632;2022-12-07T07:07:29;4.32;;;1.83;;
63536;SDS011;49686;51.880;5.632;2022-12-07T07:09:57;2.95;;;1.80;;
63536;SDS011;49686;51.880;5.632;2022-12-07T07:12:23;6.67;;;2.23;;
63536;SDS011;49686;51.880;5.632;2022-12-07T07:14:50;5.00;;;1.65;;
63536;SDS011;49686;51.880;5.632;2022-12-07T07:17:17;7.45;;;2.25;;
63536;SDS011;49686;51.880;5.632;2022-12-07T07:19:43;6.90;;;2.22;;
63536;SDS011;49686;51.880;5.632;2022-12-07T07:22:10;5.53;;;2.10;;
63536;SDS011;49686;51.880;5.632;2022-12-07T07:24:37;7.90;;;2.70;;
63536;SDS011;49686;51.880;5.632;2022-12-07T07:27:05;4.90;;;2.35;;
63536;SDS011;49686;51.880;5.632;2022-12-07T07:29:32;5.95;;;3.28;;
63536;SDS011;49686;51.880;5.632;2022-12-07T07:31:59;7.05;;;2.85;;
63536;SDS011;49686;51.880;5.632;2022-12-07T07:34:32;10.65;;;2.97;;
63536;SDS011;49686;51.880;5.632;2022-12-07T07:36:59;8.60;;;3.65;;
63536;SDS011;49686;51.880;5.632;2022-12-07T07:39:25;8.98;;;3.20;;
63536;SDS011;49686;51.880;5.632;2022-12-07T07:41:52;6.57;;;2.80;;
63536;SDS011;49686;51.880;5.632;2022-12-07T07:44:20;4.30;;;2.55;;
63536;SDS011;49686;51.880;5.632;2022-12-07T07:46:47;7.17;;;2.37;;
63536;SDS011;49686;51.880;5.632;2022-12-07T07:49:14;6.10;;;2.67;;
63536;SDS011;49686;51.880;5.632;2022-12-07T07:51:41;5.55;;;2.05;;
63536;SDS011;49686;51.880;5.632;2022-12-07T07:54:07;6.97;;;2.63;;
63536;SDS011;49686;51.880;5.632;2022-12-07T07:56:34;6.18;;;2.55;;
63536;SDS011;49686;51.880;5.632;2022-12-07T07:59:01;10.27;;;3.47;;
63536;SDS011;49686;51.880;5.632;2022-12-07T08:01:29;7.35;;;2.95;;
63536;SDS011;49686;51.880;5.632;2022-12-07T08:03:56;6.13;;;2.60;;
63536;SDS011;49686;51.880;5.632;2022-12-07T08:06:23;4.95;;;1.98;;
63536;SDS011;49686;51.880;5.632;2022-12-07T08:08:57;6.60;;;2.75;;
63536;SDS011;49686;51.880;5.632;2022-12-07T08:11:24;8.05;;;2.33;;
63536;SDS011;49686;51.880;5.632;2022-12-07T08:13:50;6.47;;;2.38;;
63536;SDS011;49686;51.880;5.632;2022-12-07T08:16:17;8.65;;;2.85;;
63536;SDS011;49686;51.880;5.632;2022-12-07T08:18:45;8.32;;;2.75;;
63536;SDS011;49686;51.880;5.632;2022-12-07T08:21:13;6.30;;;2.90;;
63536;SDS011;49686;51.880;5.632;2022-12-07T08:23:41;6.13;;;2.90;;
63536;SDS011;49686;51.880;5.632;2022-12-07T08:26:08;8.88;;;2.88;;
63536;SDS011;49686;51.880;5.632;2022-12-07T08:31:04;8.48;;;3.15;;
63536;SDS011;49686;51.880;5.632;2022-12-07T08:33:34;10.93;;;2.92;;
63536;SDS011;49686;51.880;5.632;2022-12-07T08:36:02;10.27;;;3.40;;
63536;SDS011;49686;51.880;5.632;2022-12-07T08:38:30;6.53;;;3.25;;
63536;SDS011;49686;51.880;5.632;2022-12-07T08:40:58;5.75;;;1.95;;
63536;SDS011;49686;51.880;5.632;2022-12-07T08:43:25;13.38;;;3.65;;
63536;SDS011;49686;51.880;5.632;2022-12-07T08:45:53;3.88;;;2.38;;
63536;SDS011;49686;51.880;5.632;2022-12-07T08:48:28;8.45;;;4.22;;
63536;SDS011;49686;51.880;5.632;2022-12-07T08:50:55;15.38;;;4.90;;
63536;SDS011;49686;51.880;5.632;2022-12-07T08:53:24;12.60;;;3.75;;
63536;SDS011;49686;51.880;5.632;2022-12-07T08:55:51;10.13;;;3.53;;
63536;SDS011;49686;51.880;5.632;2022-12-07T08:58:18;10.02;;;4.07;;
63536;SDS011;49686;51.880;5.632;2022-12-07T09:00:45;8.82;;;2.70;;
63536;SDS011;49686;51.880;5.632;2022-12-07T09:03:11;8.90;;;3.83;;
63536;SDS011;49686;51.880;5.632;2022-12-07T09:05:38;6.68;;;2.58;;
63536;SDS011;49686;51.880;5.632;2022-12-07T09:08:05;8.35;;;2.30;;
63536;SDS011;49686;51.880;5.632;2022-12-07T09:10:34;11.05;;;2.80;;
63536;SDS011;49686;51.880;5.632;2022-12-07T09:13:01;8.83;;;3.90;;
63536;SDS011;49686;51.880;5.632;2022-12-07T09:15:28;8.45;;;3.83;;
63536;SDS011;49686;51.880;5.632;2022-12-07T09:17:55;13.00;;;4.50;;
63536;SDS011;49686;51.880;5.632;2022-12-07T09:20:22;12.45;;;4.40;;
63536;SDS011;49686;51.880;5.632;2022-12-07T09:22:53;10.23;;;4.15;;
63536;SDS011;49686;51.880;5.632;2022-12-07T09:25:21;10.70;;;4.30;;
63536;SDS011;49686;51.880;5.632;2022-12-07T09:27:51;15.98;;;4.13;;
63536;SDS011;49686;51.880;5.632;2022-12-07T09:30:21;9.70;;;3.58;;
63536;SDS011;49686;51.880;5.632;2022-12-07T09:32:48;10.85;;;3.85;;
63536;SDS011;49686;51.880;5.632;2022-12-07T09:35:15;7.18;;;3.72;;
63536;SDS011;49686;51.880;5.632;2022-12-07T09:37:42;8.30;;;3.00;;
63536;SDS011;49686;51.880;5.632;2022-12-07T09:40:09;6.47;;;2.67;;
63536;SDS011;49686;51.880;5.632;2022-12-07T09:42:37;6.40;;;2.58;;
63536;SDS011;49686;51.880;5.632;2022-12-07T09:45:11;6.55;;;2.67;;
63536;SDS011;49686;51.880;5.632;2022-12-07T09:47:41;6.72;;;2.28;;
63536;SDS011;49686;51.880;5.632;2022-12-07T09:50:12;7.07;;;2.53;;
63536;SDS011;49686;51.880;5.632;2022-12-07T09:52:41;6.30;;;2.22;;
63536;SDS011;49686;51.880;5.632;2022-12-07T09:55:10;8.02;;;2.47;;
63536;SDS011;49686;51.880;5.632;2022-12-07T09:57:38;8.57;;;2.53;;
63536;SDS011;49686;51.880;5.632;2022-12-07T10:00:11;9.10;;;2.40;;
63536;SDS011;49686;51.880;5.632;2022-12-07T10:02:40;7.03;;;2.33;;
63536;SDS011;49686;51.880;5.632;2022-12-07T10:05:11;6.55;;;1.98;;
63536;SDS011;49686;51.880;5.632;2022-12-07T10:07:48;7.00;;;2.30;;
63536;SDS011;49686;51.880;5.632;2022-12-07T10:10:17;4.55;;;2.40;;
63536;SDS011;49686;51.880;5.632;2022-12-07T10:12:52;6.97;;;2.45;;
63536;SDS011;49686;51.880;5.632;2022-12-07T10:15:22;7.38;;;2.70;;
63536;SDS011;49686;51.880;5.632;2022-12-07T10:17:51;8.10;;;2.50;;
63536;SDS011;49686;51.880;5.632;2022-12-07T10:20:19;9.70;;;2.88;;
63536;SDS011;49686;51.880;5.632;2022-12-07T10:22:58;7.75;;;2.80;;
63536;SDS011;49686;51.880;5.632;2022-12-07T10:25:27;9.35;;;2.80;;
63536;SDS011;49686;51.880;5.632;2022-12-07T10:30:49;9.52;;;2.40;;
63536;SDS011;49686;51.880;5.632;2022-12-07T10:33:27;7.18;;;1.98;;
63536;SDS011;49686;51.880;5.632;2022-12-07T10:35:54;13.10;;;2.55;;
63536;SDS011;49686;51.880;5.632;2022-12-07T10:38:21;7.20;;;1.77;;
63536;SDS011;49686;51.880;5.632;2022-12-07T10:40:50;6.43;;;1.95;;
63536;SDS011;49686;51.880;5.632;2022-12-07T10:43:29;7.32;;;1.90;;
63536;SDS011;49686;51.880;5.632;2022-12-07T10:46:07;5.57;;;2.67;;
63536;SDS011;49686;51.880;5.632;2022-12-07T10:48:50;4.40;;;1.38;;
63536;SDS011;49686;51.880;5.632;2022-12-07T10:51:26;5.82;;;1.70;;
63536;SDS011;49686;51.880;5.632;2022-12-07T10:54:08;6.68;;;1.35;;
63536;SDS011;49686;51.880;5.632;2022-12-07T10:56:47;4.25;;;1.50;;
63536;SDS011;49686;51.880;5.632;2022-12-07T10:59:29;4.88;;;1.60;;
63536;SDS011;49686;51.880;5.632;2022-12-07T11:02:15;5.78;;;1.50;;
63536;SDS011;49686;51.880;5.632;2022-12-07T11:04:54;6.10;;;2.10;;
63536;SDS011;49686;51.880;5.632;2022-12-07T11:07:37;6.78;;;2.45;;
63536;SDS011;49686;51.880;5.632;2022-12-07T11:10:13;5.22;;;1.92;;
63536;SDS011;49686;51.880;5.632;2022-12-07T11:15:41;8.18;;;2.80;;
63536;SDS011;49686;51.880;5.632;2022-12-07T11:18:21;6.63;;;2.50;;
63536;SDS011;49686;51.880;5.632;2022-12-07T11:20:53;7.13;;;2.17;;
63536;SDS011;49686;51.880;5.632;2022-12-07T11:23:34;6.63;;;4.22;;
63536;SDS011;49686;51.880;5.632;2022-12-07T11:26:10;5.75;;;2.17;;
63536;SDS011;49686;51.880;5.632;2022-12-07T11:28:47;7.93;;;1.88;;
63536;SDS011;49686;51.880;5.632;2022-12-07T11:31:26;5.68;;;2.33;;
63536;SDS011;49686;51.880;5.632;2022-12-07T11:34:00;5.22;;;1.90;;
63536;SDS011;49686;51.880;5.632;2022-12-07T11:36:35;6.07;;;1.10;;
63536;SDS011;49686;51.880;5.632;2022-12-07T11:39:10;7.82;;;1.75;;
63536;SDS011;49686;51.880;5.632;2022-12-07T11:41:46;8.60;;;2.25;;
63536;SDS011;49686;51.880;5.632;2022-12-07T11:44:18;5.82;;;1.40;;
63536;SDS011;49686;51.880;5.632;2022-12-07T11:46:56;4.25;;;2.45;;
63536;SDS011;49686;51.880;5.632;2022-12-07T11:49:33;4.72;;;1.92;;
63536;SDS011;49686;51.880;5.632;2022-12-07T11:52:10;3.78;;;1.63;;
63536;SDS011;49686;51.880;5.632;2022-12-07T11:54:44;5.05;;;1.63;;
63536;SDS011;49686;51.880;5.632;2022-12-07T11:59:46;3.53;;;0.88;;
63536;SDS011;49686;51.880;5.632;2022-12-07T12:02:18;4.63;;;1.05;;
63536;SDS011;49686;51.880;5.632;2022-12-07T12:04:54;7.70;;;1.60;;
63536;SDS011;49686;51.880;5.632;2022-12-07T12:07:26;5.63;;;1.60;;
63536;SDS011;49686;51.880;5.632;2022-12-07T12:10:15;4.43;;;1.40;;
63536;SDS011;49686;51.880;5.632;2022-12-07T12:12:51;9.10;;;2.08;;
63536;SDS011;49686;51.880;5.632;2022-12-07T12:15:53;5.43;;;1.88;;
63536;SDS011;49686;51.880;5.632;2022-12-07T12:18:39;5.47;;;1.75;;
63536;SDS011;49686;51.880;5.632;2022-12-07T12:23:50;3.38;;;1.60;;
63536;SDS011;49686;51.880;5.632;2022-12-07T12:26:23;4.90;;;0.98;;
63536;SDS011;49686;51.880;5.632;2022-12-07T12:28:52;2.72;;;1.00;;
63536;SDS011;49686;51.880;5.632;2022-12-07T12:31:32;4.88;;;1.48;;
63536;SDS011;49686;51.880;5.632;2022-12-07T12:34:10;3.17;;;1.00;;
63536;SDS011;49686;51.880;5.632;2022-12-07T12:37:00;6.70;;;1.30;;
63536;SDS011;49686;51.880;5.632;2022-12-07T12:39:27;4.90;;;1.13;;
63536;SDS011;49686;51.880;5.632;2022-12-07T12:41:54;5.63;;;1.50;;
63536;SDS011;49686;51.880;5.632;2022-12-07T12:44:41;5.03;;;1.00;;
63536;SDS011;49686;51.880;5.632;2022-12-07T12:47:40;4.05;;;1.00;;
63536;SDS011;49686;51.880;5.632;2022-12-07T12:50:18;3.40;;;0.70;;
63536;SDS011;49686;51.880;5.632;2022-12-07T12:58:50;3.28;;;0.90;;
63536;SDS011;49686;51.880;5.632;2022-12-07T13:01:47;3.60;;;1.15;;
63536;SDS011;49686;51.880;5.632;2022-12-07T13:04:24;3.03;;;1.52;;
63536;SDS011;49686;51.880;5.632;2022-12-07T13:06:59;3.28;;;1.00;;
63536;SDS011;49686;51.880;5.632;2022-12-07T13:09:27;4.85;;;1.70;;
63536;SDS011;49686;51.880;5.632;2022-12-07T13:11:58;1.10;;;0.73;;
63536;SDS011;49686;51.880;5.632;2022-12-07T13:14:51;10.95;;;1.15;;
63536;SDS011;49686;51.880;5.632;2022-12-07T13:20:44;2.88;;;1.00;;
63536;SDS011;49686;51.880;5.632;2022-12-07T13:23:13;5.93;;;1.23;;
63536;SDS011;49686;51.880;5.632;2022-12-07T13:28:44;4.18;;;1.10;;
63536;SDS011;49686;51.880;5.632;2022-12-07T13:31:21;3.95;;;1.20;;
63536;SDS011;49686;51.880;5.632;2022-12-07T13:33:57;4.32;;;1.15;;
63536;SDS011;49686;51.880;5.632;2022-12-07T13:36:24;2.97;;;0.90;;
63536;SDS011;49686;51.880;5.632;2022-12-07T13:38:54;3.22;;;1.48;;
63536;SDS011;49686;51.880;5.632;2022-12-07T13:41:23;5.13;;;1.10;;
63536;SDS011;49686;51.880;5.632;2022-12-07T13:43:53;2.72;;;1.00;;
63536;SDS011;49686;51.880;5.632;2022-12-07T13:46:27;4.35;;;1.10;;
63536;SDS011;49686;51.880;5.632;2022-12-07T13:49:01;6.10;;;1.33;;
63536;SDS011;49686;51.880;5.632;2022-12-07T13:51:28;6.85;;;1.35;;
63536;SDS011;49686;51.880;5.632;2022-12-07T13:54:00;2.85;;;1.10;;
63536;SDS011;49686;51.880;5.632;2022-12-07T13:56:36;5.30;;;1.50;;
63536;SDS011;49686;51.880;5.632;2022-12-07T13:59:03;6.05;;;1.58;;
63536;SDS011;49686;51.880;5.632;2022-12-07T14:01:31;4.40;;;1.33;;
63536;SDS011;49686;51.880;5.632;2022-12-07T14:06:47;5.05;;;1.10;;
63536;SDS011;49686;51.880;5.632;2022-12-07T14:09:19;3.22;;;1.52;;
63536;SDS011;49686;51.880;5.632;2022-12-07T14:11:49;3.65;;;1.30;;
63536;SDS011;49686;51.880;5.632;2022-12-07T14:14:18;6.57;;;1.40;;
63536;SDS011;49686;51.880;5.632;2022-12-07T14:16:55;4.50;;;1.85;;
63536;SDS011;49686;51.880;5.632;2022-12-07T14:19:46;6.97;;;1.73;;
63536;SDS011;49686;51.880;5.632;2022-12-07T14:22:19;1.85;;;1.13;;
63536;SDS011;49686;51.880;5.632;2022-12-07T14:30:50;8.38;;;2.30;;
63536;SDS011;49686;51.880;5.632;2022-12-07T14:33:17;7.22;;;2.17;;
63536;SDS011;49686;51.880;5.632;2022-12-07T14:35:45;7.75;;;2.47;;
63536;SDS011;49686;51.880;5.632;2022-12-07T14:38:12;5.45;;;2.03;;
63536;SDS011;49686;51.880;5.632;2022-12-07T14:40:38;7.03;;;2.92;;
63536;SDS011;49686;51.880;5.632;2022-12-07T14:43:09;8.23;;;4.47;;
63536;SDS011;49686;51.880;5.632;2022-12-07T14:45:39;8.55;;;2.80;;
63536;SDS011;49686;51.880;5.632;2022-12-07T14:48:06;5.25;;;2.17;;
63536;SDS011;49686;51.880;5.632;2022-12-07T14:50:56;3.20;;;1.77;;
63536;SDS011;49686;51.880;5.632;2022-12-07T14:53:44;2.13;;;1.05;;
63536;SDS011;49686;51.880;5.632;2022-12-07T14:56:22;3.97;;;1.30;;
63536;SDS011;49686;51.880;5.632;2022-12-07T14:58:50;2.42;;;1.00;;
63536;SDS011;49686;51.880;5.632;2022-12-07T15:01:17;4.28;;;1.30;;
63536;SDS011;49686;51.880;5.632;2022-12-07T15:03:44;2.85;;;1.33;;
63536;SDS011;49686;51.880;5.632;2022-12-07T15:06:13;4.15;;;1.30;;
63536;SDS011;49686;51.880;5.632;2022-12-07T15:08:41;2.20;;;0.90;;
63536;SDS011;49686;51.880;5.632;2022-12-07T15:11:09;4.10;;;1.48;;
63536;SDS011;49686;51.880;5.632;2022-12-07T15:13:38;3.00;;;1.33;;
63536;SDS011;49686;51.880;5.632;2022-12-07T15:16:07;4.07;;;1.10;;
63536;SDS011;49686;51.880;5.632;2022-12-07T15:18:37;4.28;;;1.40;;
63536;SDS011;49686;51.880;5.632;2022-12-07T15:21:10;4.85;;;1.70;;
63536;SDS011;49686;51.880;5.632;2022-12-07T15:23:38;4.70;;;1.90;;
63536;SDS011;49686;51.880;5.632;2022-12-07T15:26:05;4.38;;;1.42;;
63536;SDS011;49686;51.880;5.632;2022-12-07T15:28:32;3.85;;;1.20;;
63536;SDS011;49686;51.880;5.632;2022-12-07T15:30:58;4.18;;;1.88;;
63536;SDS011;49686;51.880;5.632;2022-12-07T15:33:46;5.00;;;1.58;;
63536;SDS011;49686;51.880;5.632;2022-12-07T15:36:15;5.47;;;1.57;;
63536;SDS011;49686;51.880;5.632;2022-12-07T15:38:45;2.28;;;1.25;;
63536;SDS011;49686;51.880;5.632;2022-12-07T15:41:32;1.70;;;1.02;;
63536;SDS011;49686;51.880;5.632;2022-12-07T15:43:59;3.70;;;1.30;;
63536;SDS011;49686;51.880;5.632;2022-12-07T15:46:28;2.78;;;1.10;;
63536;SDS011;49686;51.880;5.632;2022-12-07T15:48:57;3.88;;;1.80;;
63536;SDS011;49686;51.880;5.632;2022-12-07T15:51:24;4.43;;;1.60;;